Aérodrome :
LOGIN :

S'inscrire | Disclaimer

   EN    FR    IT 

 










Légende :    VFR   VFR Marginal   IFR   IFR Intensif   IFR Très Intensif
Visi : 
Plafond : 
>= 8 km
>= 3000ft
5 à 8 km
1000 à 3000 ft
1500m à 5 km
500 à 1000 ft
800 à 1500m
200 à 500 ft
< 800m
< 200 ft
Symboles :   Orages  Brouillard  Fortes neiges  Fortes précipitations  Vent > 20 kt
SIGMETs :   Divers  Orages  Givrage  Turbulence  Onde Orograph.  Cendres Volcan.







- Altitude de l'aérodrome : 348 ft
- Code IATA : STN
- Voir les cartes d'approche


EGSS - London Stansted

DERNIER METAR :
  • 152220Z AUTO 22011KT 9999 SCT033 18/14 Q1015

METARs EXPIRÉS :
  • 152150Z AUTO 21011KT 9999 FEW033 18/14 Q1015
  • 152120Z AUTO 20010KT 9999 OVC033 19/15 Q1015
  • 152050Z AUTO 20009KT 9999 BKN036 19/15 Q1016
  • 152020Z AUTO 21010KT 9999 SCT039 19/15 Q1016

TAF AMD TAF EGSS
Valide du 15 à 20h jusqu'au 17 à 00h UTC


152001Z 1520/1624 21012KT 9999 BKN020
TEMPO 1606/1614 8000 -RA BKN010
PROB40
TEMPO 1609/1614 4000 +RA BKN005
BECMG 1612/1615 27008KT
ATIS : +44 1279 669 325
Pas de NOTAMs connus pour ce terrain.



MET'MAP, la Météo Aéronautique d'un coup d'oeil ! - Copyright ORBIFLY Décembre 2007 - Disclaimer

ORBIFLY MET'MAP TEAM :

Programmation & Développement : Alexandra Zaïnal
Conception & Développement : Baudouin d'Aumeries
Co-Programmation & Développement : Marc-Olivier Méhu
Soutien technique & logistique : Manuel Goepfert

Contact : metmap@orbifly.com




SOURCES & CREDITS :

   NOAA